Time;durP1;ratioP1;P1;durP2;ratioP2;P2;SDS_P1;SDS_P2;PMS_P1;PMS_P2;Temp;Humidity;BMP_temperature;BMP_pressure;BME280_temperature;BME280_humidity;BME280_pressure;Samples;Min_cycle;Max_cycle;Signal;HPM_P1;HPM_P2
2022/03/24 00:01:55;;;;;;;39.47;17.83;;;3.30;73.40;;;;;;5011684;28;20195;-69
2022/03/24 00:04:21;;;;;;;46.63;18.97;;;3.20;73.10;;;;;;5011582;28;20230;-70
2022/03/24 00:06:47;;;;;;;39.47;19.00;;;3.10;73.30;;;;;;5011789;28;20187;-70
2022/03/24 00:09:13;;;;;;;42.27;16.73;;;3.10;74.80;;;;;;4995706;28;20213;-70
2022/03/24 00:11:40;;;;;;;37.53;17.47;;;3.10;74.10;;;;;;5015377;28;20172;-69
2022/03/24 00:14:06;;;;;;;34.30;15.57;;;3.10;74.50;;;;;;4997761;28;20187;-70
2022/03/24 00:16:32;;;;;;;40.80;16.67;;;3.10;74.40;;;;;;5014823;28;20198;-69
2022/03/24 00:18:59;;;;;;;35.07;15.67;;;3.10;74.80;;;;;;5015170;28;20180;-69
2022/03/24 00:21:25;;;;;;;33.33;15.63;;;3.00;74.80;;;;;;5014776;28;20610;-70
2022/03/24 00:23:51;;;;;;;35.17;15.13;;;3.20;74.70;;;;;;5015164;28;20210;-69
2022/03/24 00:26:17;;;;;;;32.73;15.37;;;3.30;74.20;;;;;;5014522;28;20226;-70
2022/03/24 00:28:43;;;;;;;37.13;15.60;;;3.30;74.00;;;;;;5015381;28;20259;-70
2022/03/24 00:31:09;;;;;;;41.50;14.90;;;3.30;73.80;;;;;;5015141;28;20195;-70
2022/03/24 00:33:38;;;;;;;36.90;15.77;;;3.30;73.40;;;;;;5015134;28;20251;-70
2022/03/24 00:36:08;;;;;;;44.13;15.97;;;3.20;73.90;;;;;;5025757;28;20185;-69
2022/03/24 00:38:34;;;;;;;39.13;16.90;;;3.20;74.00;;;;;;5034609;28;20201;-70
2022/03/24 00:41:02;;;;;;;38.93;17.80;;;3.20;74.20;;;;;;5034811;28;20212;-70
2022/03/24 00:43:29;;;;;;;40.27;16.13;;;3.20;74.30;;;;;;5034644;28;20280;-70
2022/03/24 00:45:55;;;;;;;32.97;15.27;;;3.10;75.40;;;;;;5034930;28;20191;-70
2022/03/24 00:48:23;;;;;;;38.37;17.17;;;3.00;75.40;;;;;;5029864;28;20242;-68
2022/03/24 00:50:49;;;;;;;38.27;16.43;;;2.80;75.90;;;;;;5015054;28;20187;-70
2022/03/24 00:53:16;;;;;;;43.17;16.37;;;2.80;76.60;;;;;;5029935;28;20206;-72
2022/03/24 00:55:43;;;;;;;33.27;16.00;;;2.70;77.00;;;;;;5014873;28;20182;-69
2022/03/24 00:58:10;;;;;;;35.37;15.97;;;2.70;77.40;;;;;;5014876;28;20205;-70
2022/03/24 01:00:37;;;;;;;37.87;16.67;;;2.60;77.80;;;;;;5014882;28;20648;-70
2022/03/24 01:03:06;;;;;;;37.13;15.73;;;2.50;78.50;;;;;;5014779;28;20181;-69
2022/03/24 01:05:34;;;;;;;36.90;16.97;;;2.30;79.30;;;;;;5013320;28;20188;-69
2022/03/24 01:08:00;;;;;;;37.23;16.33;;;2.30;80.40;;;;;;5014566;28;20220;-70
2022/03/24 01:10:26;;;;;;;36.60;16.60;;;2.20;81.10;;;;;;5014206;28;20194;-70
2022/03/24 01:12:52;;;;;;;33.77;16.23;;;2.10;82.80;;;;;;5014402;28;20192;-70
2022/03/24 01:15:22;;;;;;;34.30;14.90;;;2.10;85.00;;;;;;5014063;28;20214;-70
2022/03/24 01:17:49;;;;;;;34.07;15.93;;;2.00;85.00;;;;;;5014473;28;20174;-70
2022/03/24 01:20:16;;;;;;;28.00;14.40;;;2.00;85.90;;;;;;5013861;28;20213;-70
2022/03/24 01:22:42;;;;;;;37.03;15.83;;;1.90;86.20;;;;;;5014158;28;20607;-70
2022/03/24 01:25:08;;;;;;;39.03;14.53;;;1.90;86.40;;;;;;5014176;28;20213;-68
2022/03/24 01:27:35;;;;;;;36.70;14.40;;;1.90;87.20;;;;;;5013566;28;20261;-70
2022/03/24 01:30:01;;;;;;;29.00;13.80;;;2.00;87.90;;;;;;5014046;28;20187;-71
2022/03/24 01:32:27;;;;;;;25.33;13.37;;;2.10;87.00;;;;;;5014050;28;20235;-69
2022/03/24 01:34:55;;;;;;;32.57;14.23;;;2.20;86.60;;;;;;5013142;28;20182;-68
2022/03/24 01:37:22;;;;;;;36.53;14.90;;;2.10;87.00;;;;;;4994192;28;20179;-69
2022/03/24 01:39:49;;;;;;;34.50;14.53;;;2.00;87.90;;;;;;4994671;28;20196;-69
2022/03/24 01:42:16;;;;;;;31.13;13.57;;;1.90;89.10;;;;;;4994112;28;20186;-69
2022/03/24 01:44:46;;;;;;;30.07;13.30;;;1.90;90.00;;;;;;4994612;28;20186;-69
2022/03/24 01:47:12;;;;;;;30.10;13.57;;;2.00;89.50;;;;;;4993743;28;20264;-68
2022/03/24 01:49:43;;;;;;;31.93;14.37;;;2.10;89.20;;;;;;5008958;28;20237;-69
2022/03/24 01:52:12;;;;;;;31.67;13.63;;;2.20;88.90;;;;;;4996179;28;20201;-69
2022/03/24 01:54:42;;;;;;;23.27;12.30;;;2.10;88.90;;;;;;5013904;28;20174;-70
2022/03/24 01:57:11;;;;;;;31.10;13.13;;;2.10;88.50;;;;;;5013628;28;20179;-69
2022/03/24 01:59:37;;;;;;;27.53;12.97;;;2.20;88.40;;;;;;5013851;28;20688;-70
2022/03/24 02:02:04;;;;;;;36.47;13.57;;;2.20;88.00;;;;;;5013701;28;20179;-69
2022/03/24 02:04:35;;;;;;;28.53;13.17;;;2.20;87.80;;;;;;4996038;28;20355;-69
2022/03/24 02:07:05;;;;;;;34.77;14.40;;;2.10;87.90;;;;;;5013706;28;20174;-70
2022/03/24 02:09:31;;;;;;;30.70;13.93;;;2.10;88.60;;;;;;4995872;28;20301;-70
2022/03/24 02:11:57;;;;;;;37.23;13.57;;;2.00;88.70;;;;;;5013487;28;20188;-69
2022/03/24 02:14:23;;;;;;;31.33;13.90;;;2.10;88.90;;;;;;5012949;28;20568;-69
2022/03/24 02:16:50;;;;;;;29.40;13.27;;;2.10;88.70;;;;;;5013647;28;20488;-70
2022/03/24 02:19:24;;;;;;;31.07;14.30;;;2.10;89.10;;;;;;5012945;28;20185;-69
2022/03/24 02:21:52;;;;;;;30.07;14.10;;;2.10;89.50;;;;;;5013452;28;20172;-68
2022/03/24 02:24:19;;;;;;;33.13;14.87;;;2.00;89.70;;;;;;5013047;28;20180;-69
2022/03/24 02:26:46;;;;;;;29.13;13.63;;;2.00;90.00;;;;;;4995508;28;20527;-70
2022/03/24 02:29:14;;;;;;;33.17;14.20;;;1.90;90.00;;;;;;5012708;28;20207;-69
2022/03/24 02:31:45;;;;;;;38.80;14.77;;;1.80;90.50;;;;;;5012134;28;20581;-69
2022/03/24 02:37:02;;;;;;;33.57;13.00;;;1.60;91.30;;;;;;5031577;28;20273;-69
2022/03/24 02:39:28;;;;;;;29.77;14.37;;;1.60;91.90;;;;;;5014731;28;20193;-69
2022/03/24 02:41:59;;;;;;;36.30;13.33;;;1.60;92.10;;;;;;5014911;28;20287;-70
2022/03/24 02:44:33;;;;;;;32.77;13.67;;;1.60;92.00;;;;;;5032193;28;20249;-67
2022/03/24 02:47:06;;;;;;;45.07;14.33;;;1.70;91.90;;;;;;5032889;28;20509;-71
2022/03/24 02:49:33;;;;;;;29.27;13.27;;;1.60;92.20;;;;;;5032176;28;20230;-69
2022/03/24 02:52:01;;;;;;;37.77;13.70;;;1.70;92.40;;;;;;5032552;28;20203;-69
2022/03/24 02:54:29;;;;;;;33.20;13.77;;;1.70;92.20;;;;;;5032248;28;20187;-69
2022/03/24 02:56:55;;;;;;;29.00;12.70;;;1.70;92.10;;;;;;5032263;28;20527;-69
2022/03/24 02:59:21;;;;;;;37.90;13.67;;;1.70;91.90;;;;;;5031920;28;20193;-69
2022/03/24 03:02:06;;;;;;;29.83;13.43;;;1.70;91.90;;;;;;5032423;28;20274;-69
2022/03/24 03:04:32;;;;;;;33.83;13.47;;;1.70;92.10;;;;;;5030834;28;20195;-69
2022/03/24 03:07:00;;;;;;;33.33;14.27;;;1.80;92.40;;;;;;5032178;28;20187;-70
2022/03/24 03:09:26;;;;;;;33.50;13.30;;;1.80;92.40;;;;;;5031642;28;20297;-70
2022/03/24 03:11:52;;;;;;;29.33;13.00;;;1.70;92.50;;;;;;5014475;28;20243;-69
2022/03/24 03:14:19;;;;;;;36.53;13.33;;;1.70;92.40;;;;;;5031676;28;20179;-70
2022/03/24 03:16:45;;;;;;;25.63;12.67;;;1.60;92.60;;;;;;5032261;28;20202;-70
2022/03/24 03:19:11;;;;;;;27.10;13.03;;;1.60;92.70;;;;;;5031556;28;20183;-64
2022/03/24 03:21:39;;;;;;;36.47;18.00;;;1.60;93.00;;;;;;5032013;28;20194;-69
2022/03/24 03:24:06;;;;;;;43.47;14.53;;;1.60;93.20;;;;;;5032193;28;20280;-70
2022/03/24 03:26:33;;;;;;;34.53;14.10;;;1.60;93.20;;;;;;5031842;28;20179;-69
2022/03/24 03:28:59;;;;;;;29.63;13.43;;;1.60;93.30;;;;;;5031799;28;20222;-70
2022/03/24 03:31:25;;;;;;;36.40;14.97;;;1.60;93.30;;;;;;5031799;28;20647;-70
2022/03/24 03:33:51;;;;;;;37.57;14.57;;;1.60;93.50;;;;;;5031632;28;20190;-71
2022/03/24 03:36:18;;;;;;;46.53;15.80;;;1.60;93.50;;;;;;5019273;28;20188;-70
2022/03/24 03:38:47;;;;;;;33.63;14.17;;;1.60;93.70;;;;;;5012226;28;20535;-70
2022/03/24 03:41:14;;;;;;;35.63;13.77;;;1.60;93.70;;;;;;4994362;28;20207;-70
2022/03/24 03:43:44;;;;;;;29.73;14.67;;;1.70;93.40;;;;;;5015279;28;20184;-70
2022/03/24 03:46:11;;;;;;;32.60;14.23;;;1.70;93.20;;;;;;5016129;28;20187;-67
2022/03/24 03:48:38;;;;;;;44.37;16.07;;;1.80;93.10;;;;;;5015866;28;20237;-71
2022/03/24 03:51:05;;;;;;;40.43;16.70;;;1.80;93.50;;;;;;5016081;28;20618;-71
2022/03/24 03:53:32;;;;;;;46.50;16.10;;;1.80;93.60;;;;;;4998089;28;20590;-72
2022/03/24 03:55:58;;;;;;;40.83;13.77;;;1.80;93.90;;;;;;5016060;28;20294;-69
2022/03/24 03:58:23;;;;;;;43.77;16.40;;;1.80;93.70;;;;;;5015318;28;20683;-69
2022/03/24 04:00:58;;;;;;;35.20;14.90;;;1.80;93.70;;;;;;5015738;28;20516;-71
2022/03/24 04:03:29;;;;;;;38.00;14.63;;;1.80;93.50;;;;;;5015189;28;20196;-69
2022/03/24 04:06:00;;;;;;;36.93;15.47;;;1.70;93.40;;;;;;5015882;28;20266;-71
2022/03/24 04:08:28;;;;;;;36.20;14.70;;;1.70;93.50;;;;;;5015397;28;20206;-70
2022/03/24 04:10:54;;;;;;;41.70;14.37;;;1.70;93.40;;;;;;5015571;28;20191;-70
2022/03/24 04:13:21;;;;;;;39.17;14.50;;;1.70;93.50;;;;;;5015425;28;20183;-70
2022/03/24 04:15:49;;;;;;;36.90;14.23;;;1.80;93.30;;;;;;5015265;28;20183;-70
2022/03/24 04:18:16;;;;;;;34.17;13.83;;;1.70;93.20;;;;;;5015120;28;20189;-70
2022/03/24 04:20:42;;;;;;;40.50;14.57;;;1.70;93.20;;;;;;5014979;28;20203;-70
2022/03/24 04:23:08;;;;;;;37.87;15.27;;;1.70;93.40;;;;;;5015048;28;20233;-69
2022/03/24 04:25:35;;;;;;;33.30;13.67;;;1.70;93.40;;;;;;4997169;28;20206;-69
2022/03/24 04:28:02;;;;;;;34.57;12.73;;;1.80;93.20;;;;;;5015253;28;20215;-70
2022/03/24 04:30:30;;;;;;;42.13;13.93;;;1.80;93.10;;;;;;5014558;28;20548;-71
2022/03/24 04:32:56;;;;;;;44.87;15.70;;;1.80;93.00;;;;;;5014750;28;20648;-71
2022/03/24 04:35:22;;;;;;;32.73;14.10;;;1.90;93.00;;;;;;5019552;28;20180;-70
2022/03/24 04:37:49;;;;;;;42.63;14.83;;;1.90;92.80;;;;;;5034979;28;20192;-70
2022/03/24 04:40:17;;;;;;;29.00;12.83;;;2.00;92.50;;;;;;5034286;28;20203;-69
2022/03/24 04:42:45;;;;;;;44.10;15.17;;;2.20;92.10;;;;;;5034589;28;20192;-70
2022/03/24 04:45:13;;;;;;;38.73;14.47;;;2.30;91.80;;;;;;5034231;28;20196;-68
2022/03/24 04:47:40;;;;;;;47.77;17.07;;;2.40;91.70;;;;;;5033549;28;20176;-69
2022/03/24 04:50:06;;;;;;;47.87;17.30;;;2.40;91.70;;;;;;5016286;28;20316;-70
2022/03/24 04:52:32;;;;;;;51.73;14.63;;;2.60;91.60;;;;;;5033963;28;20188;-69
2022/03/24 04:55:01;;;;;;;46.30;15.43;;;2.60;91.20;;;;;;5033101;28;20206;-69
2022/03/24 04:57:29;;;;;;;36.50;13.60;;;2.70;90.90;;;;;;5032169;28;20220;-69
2022/03/24 04:59:56;;;;;;;47.10;14.50;;;2.80;90.70;;;;;;5032902;28;20197;-70
2022/03/24 05:02:24;;;;;;;42.57;15.20;;;2.90;90.50;;;;;;5034058;28;20212;-69
2022/03/24 05:04:51;;;;;;;40.57;14.93;;;2.90;90.60;;;;;;5034104;28;20205;-70
2022/03/24 05:07:16;;;;;;;41.50;16.30;;;3.00;90.60;;;;;;5033567;28;20291;-69
2022/03/24 05:09:42;;;;;;;41.53;15.83;;;3.00;90.40;;;;;;5034076;28;20208;-70
2022/03/24 05:12:08;;;;;;;43.73;16.67;;;3.10;90.30;;;;;;5033913;28;20186;-70
2022/03/24 05:14:34;;;;;;;41.40;15.83;;;3.20;90.30;;;;;;5015473;28;20295;-69
2022/03/24 05:17:01;;;;;;;41.63;15.83;;;3.30;90.00;;;;;;5033294;28;20273;-72
2022/03/24 05:19:27;;;;;;;45.37;15.77;;;3.40;89.30;;;;;;5033172;28;20269;-70
2022/03/24 05:21:53;;;;;;;47.67;16.03;;;3.50;89.00;;;;;;5032530;28;20205;-70
2022/03/24 05:24:19;;;;;;;41.30;15.80;;;3.60;89.30;;;;;;5033127;28;20270;-70
2022/03/24 05:26:45;;;;;;;36.00;15.33;;;3.70;88.90;;;;;;5033810;28;20270;-69
2022/03/24 05:29:12;;;;;;;71.73;21.87;;;3.80;88.50;;;;;;5033769;28;20666;-70
2022/03/24 05:31:38;;;;;;;47.57;18.07;;;3.90;90.00;;;;;;5033311;28;20264;-66
2022/03/24 05:34:04;;;;;;;36.70;16.43;;;4.00;89.20;;;;;;5033008;28;20187;-70
2022/03/24 05:36:30;;;;;;;37.23;16.77;;;4.10;87.70;;;;;;5018156;28;20187;-70
2022/03/24 05:38:56;;;;;;;81.80;18.57;;;4.20;87.00;;;;;;5013232;28;20214;-72
2022/03/24 05:41:22;;;;;;;40.70;15.33;;;4.40;86.40;;;;;;5012852;28;20624;-70
2022/03/24 05:44:03;;;;;;;38.80;16.07;;;4.50;85.00;;;;;;5012924;28;20598;-70
2022/03/24 05:46:30;;;;;;;44.07;16.03;;;4.60;84.30;;;;;;4996759;28;20194;-71
2022/03/24 05:48:56;;;;;;;37.10;15.67;;;4.80;83.20;;;;;;5012344;28;20278;-70
2022/03/24 05:51:23;;;;;;;31.80;14.17;;;4.80;83.50;;;;;;4994688;28;20184;-70
2022/03/24 05:53:49;;;;;;;38.73;15.93;;;5.00;83.20;;;;;;5013714;28;20598;-71
2022/03/24 05:56:15;;;;;;;33.90;14.60;;;5.10;82.90;;;;;;5012370;28;20184;-65
2022/03/24 05:58:41;;;;;;;42.60;15.17;;;5.20;80.60;;;;;;5014217;28;20260;-63
2022/03/24 06:01:07;;;;;;;48.40;20.13;;;5.40;80.20;;;;;;5021654;28;20240;-63
2022/03/24 06:03:35;;;;;;;72.87;25.73;;;5.50;82.30;;;;;;5021012;28;20196;-60
2022/03/24 06:06:02;;;;;;;83.13;30.50;;;5.50;85.50;;;;;;5021371;28;20582;-62
2022/03/24 06:08:28;;;;;;;99.23;36.07;;;5.60;87.00;;;;;;5018406;28;20263;-65
2022/03/24 06:10:54;;;;;;;91.47;34.50;;;5.60;88.20;;;;;;4999812;28;20702;-64
2022/03/24 06:13:20;;;;;;;79.47;32.47;;;5.70;88.70;;;;;;4995889;28;20550;-68
2022/03/24 06:15:50;;;;;;;56.90;27.17;;;5.70;88.20;;;;;;5021656;28;20199;-62
2022/03/24 06:18:16;;;;;;;64.00;27.97;;;5.80;86.60;;;;;;5020616;28;20345;-62
2022/03/24 06:20:43;;;;;;;81.43;32.80;;;5.80;84.60;;;;;;5018811;28;20192;-65
2022/03/24 06:23:09;;;;;;;82.97;32.53;;;5.90;84.90;;;;;;5019816;28;20199;-61
2022/03/24 06:25:37;;;;;;;80.43;31.27;;;6.00;85.40;;;;;;5002027;28;20245;-69
2022/03/24 06:28:05;;;;;;;76.97;33.13;;;6.10;84.30;;;;;;5019676;28;20221;-67
2022/03/24 06:30:31;;;;;;;73.23;31.40;;;6.20;84.20;;;;;;5020632;28;20206;-68
2022/03/24 06:32:57;;;;;;;74.60;32.10;;;6.40;83.80;;;;;;5019280;28;20279;-66
2022/03/24 06:35:24;;;;;;;82.67;32.13;;;6.50;83.80;;;;;;5020792;28;20554;-67
2022/03/24 06:37:51;;;;;;;64.60;25.97;;;6.70;83.60;;;;;;5018541;28;20200;-66
2022/03/24 06:40:17;;;;;;;76.13;29.67;;;6.80;81.50;;;;;;5018042;28;20224;-66
2022/03/24 06:42:43;;;;;;;55.67;24.10;;;7.00;81.40;;;;;;5008334;28;20548;-67
2022/03/24 06:45:11;;;;;;;68.03;27.00;;;7.20;79.80;;;;;;5020584;28;20299;-66
2022/03/24 06:47:39;;;;;;;36.33;16.73;;;7.40;77.70;;;;;;5000836;28;20188;-66
2022/03/24 06:50:05;;;;;;;36.77;14.97;;;7.50;73.10;;;;;;5018967;28;20258;-66
2022/03/24 06:52:31;;;;;;;42.03;15.27;;;7.60;69.80;;;;;;5016993;28;20185;-67
2022/03/24 06:54:57;;;;;;;39.40;15.33;;;7.70;69.10;;;;;;5018929;28;20972;-66
2022/03/24 06:57:23;;;;;;;51.27;19.20;;;7.90;68.30;;;;;;5018619;28;20192;-66
2022/03/24 06:59:49;;;;;;;46.70;19.87;;;8.00;69.20;;;;;;4987674;28;20281;-65
2022/03/24 07:02:15;;;;;;;60.20;23.47;;;8.20;69.00;;;;;;5002746;28;20561;-66
2022/03/24 07:04:41;;;;;;;51.03;22.67;;;8.30;71.00;;;;;;5019730;28;20555;-65
2022/03/24 07:07:08;;;;;;;46.07;21.30;;;8.40;70.00;;;;;;5018526;28;20191;-68
2022/03/24 07:09:35;;;;;;;41.30;18.77;;;8.60;69.50;;;;;;5018453;28;20242;-68
2022/03/24 07:12:01;;;;;;;29.30;14.17;;;8.70;66.80;;;;;;5019485;28;20252;-67
2022/03/24 07:14:27;;;;;;;28.50;14.07;;;8.90;61.70;;;;;;5019327;28;20275;-67
2022/03/24 07:16:53;;;;;;;33.73;14.77;;;9.20;58.90;;;;;;5002132;28;20270;-67
2022/03/24 07:19:19;;;;;;;28.90;14.10;;;9.50;57.30;;;;;;5000824;28;20194;-67
2022/03/24 07:21:46;;;;;;;30.83;15.20;;;9.90;56.40;;;;;;5020204;28;20192;-68
2022/03/24 07:24:12;;;;;;;28.80;14.43;;;10.20;55.40;;;;;;5019563;28;20190;-67
2022/03/24 07:26:39;;;;;;;25.90;13.73;;;10.50;54.10;;;;;;5007434;28;21056;-69
2022/03/24 07:29:05;;;;;;;29.63;14.30;;;10.70;52.50;;;;;;5027552;28;20222;-67
2022/03/24 07:31:31;;;;;;;34.23;16.07;;;10.90;51.30;;;;;;4999658;28;20190;-68
2022/03/24 07:33:57;;;;;;;36.00;16.70;;;11.00;51.80;;;;;;5029100;28;20551;-67
2022/03/24 07:36:24;;;;;;;43.83;17.17;;;11.00;52.30;;;;;;5005262;28;20231;-69
2022/03/24 07:38:51;;;;;;;41.77;16.93;;;11.00;53.20;;;;;;5030764;28;20324;-67
2022/03/24 07:41:17;;;;;;;49.33;20.07;;;10.90;53.30;;;;;;4992796;28;20201;-69
2022/03/24 07:43:43;;;;;;;43.93;19.27;;;10.90;54.10;;;;;;5022645;28;20201;-68
2022/03/24 07:46:09;;;;;;;51.80;20.00;;;10.90;54.30;;;;;;4999438;28;20556;-69
2022/03/24 07:48:35;;;;;;;45.10;19.00;;;10.90;53.20;;;;;;5024764;28;20681;-70
2022/03/24 07:51:00;;;;;;;43.23;18.00;;;11.00;52.90;;;;;;4999158;28;20194;-69
2022/03/24 07:53:42;;;;;;;38.53;18.93;;;11.20;53.00;;;;;;5011694;28;20186;-67
2022/03/24 07:56:08;;;;;;;50.07;20.00;;;11.30;52.90;;;;;;5019005;28;20268;-67
2022/03/24 07:58:34;;;;;;;42.67;19.80;;;11.40;53.00;;;;;;5030427;28;20618;-67
2022/03/24 08:01:00;;;;;;;38.50;18.87;;;11.40;52.70;;;;;;5030108;28;20543;-68
2022/03/24 08:03:26;;;;;;;49.73;19.60;;;11.50;53.20;;;;;;5028300;28;20190;-68
2022/03/24 08:05:52;;;;;;;35.23;18.03;;;11.60;53.30;;;;;;5029536;28;20190;-66
2022/03/24 08:08:18;;;;;;;40.47;20.00;;;11.70;52.30;;;;;;5030640;28;20222;-67
2022/03/24 08:10:46;;;;;;;46.93;17.50;;;11.80;52.10;;;;;;5012580;28;20188;-67
2022/03/24 08:13:15;;;;;;;41.53;18.73;;;11.90;52.60;;;;;;5030798;28;20319;-67
2022/03/24 08:15:41;;;;;;;42.27;18.27;;;12.10;52.20;;;;;;5030116;28;20933;-67
2022/03/24 08:18:09;;;;;;;32.33;17.93;;;12.20;51.90;;;;;;5030111;28;20201;-67
2022/03/24 08:20:38;;;;;;;41.37;18.33;;;12.30;51.60;;;;;;5028121;28;20257;-68
2022/03/24 08:23:05;;;;;;;49.87;17.20;;;12.50;50.70;;;;;;5028187;28;20359;-68
2022/03/24 08:25:32;;;;;;;35.33;15.83;;;12.70;49.70;;;;;;5028023;28;20193;-67
2022/03/24 08:27:59;;;;;;;38.57;15.97;;;12.80;47.40;;;;;;5028402;28;20181;-68
2022/03/24 08:30:25;;;;;;;35.47;16.30;;;12.80;46.90;;;;;;5030543;28;20186;-69
2022/03/24 08:32:51;;;;;;;32.67;16.40;;;12.90;46.90;;;;;;5031482;28;20180;-69
2022/03/24 08:35:17;;;;;;;34.23;17.83;;;12.90;47.10;;;;;;5028541;28;20210;-68
2022/03/24 08:37:44;;;;;;;34.83;17.23;;;13.00;47.00;;;;;;5012715;28;20187;-67
2022/03/24 08:40:10;;;;;;;38.07;18.00;;;12.90;47.20;;;;;;5014392;28;20186;-69
2022/03/24 08:42:38;;;;;;;28.43;14.53;;;12.90;47.80;;;;;;5014050;28;20186;-65
2022/03/24 08:45:05;;;;;;;32.83;14.83;;;12.90;47.50;;;;;;5014010;28;20190;-67
2022/03/24 08:47:31;;;;;;;44.30;15.50;;;12.90;48.00;;;;;;5013834;28;20178;-67
2022/03/24 08:49:57;;;;;;;30.90;17.00;;;12.90;48.40;;;;;;5013818;28;20244;-67
2022/03/24 08:52:23;;;;;;;38.67;19.03;;;12.80;48.80;;;;;;5013453;28;20240;-70
2022/03/24 08:54:49;;;;;;;36.90;18.20;;;12.80;49.60;;;;;;4996666;28;20184;-67
2022/03/24 08:57:16;;;;;;;40.33;19.87;;;12.80;49.80;;;;;;5013830;28;20187;-68
2022/03/24 08:59:42;;;;;;;42.23;18.70;;;12.90;50.20;;;;;;4996290;28;20228;-67
2022/03/24 09:02:08;;;;;;;43.50;18.10;;;13.00;50.30;;;;;;5012558;28;20215;-67
2022/03/24 09:04:34;;;;;;;39.53;18.47;;;13.00;50.50;;;;;;5013694;28;20194;-67
2022/03/24 09:07:00;;;;;;;44.73;18.53;;;13.10;51.00;;;;;;5013331;28;20182;-69
2022/03/24 09:09:26;;;;;;;34.53;18.77;;;13.20;51.00;;;;;;4995869;28;20214;-68
2022/03/24 09:11:52;;;;;;;44.97;20.70;;;13.30;51.20;;;;;;5012945;28;20189;-67
2022/03/24 09:14:19;;;;;;;43.20;19.50;;;13.20;51.50;;;;;;5013613;28;20192;-67
2022/03/24 09:16:45;;;;;;;51.97;23.83;;;13.40;51.50;;;;;;5013557;28;20207;-66
2022/03/24 09:19:12;;;;;;;40.83;20.07;;;13.40;51.60;;;;;;5013886;28;20214;-67
2022/03/24 09:21:38;;;;;;;42.87;19.17;;;13.60;51.70;;;;;;5013119;28;20310;-68
2022/03/24 09:24:04;;;;;;;34.73;19.37;;;13.60;51.70;;;;;;5012140;28;20204;-69
2022/03/24 09:26:30;;;;;;;36.27;19.10;;;13.50;51.60;;;;;;4995678;28;20289;-67
2022/03/24 09:28:57;;;;;;;39.17;18.27;;;13.30;51.50;;;;;;5013560;28;20672;-68
2022/03/24 09:31:22;;;;;;;40.73;20.80;;;13.20;51.70;;;;;;5013277;28;20269;-68
2022/03/24 09:33:49;;;;;;;54.30;20.93;;;13.40;52.00;;;;;;5012007;28;20267;-68
2022/03/24 09:36:15;;;;;;;40.87;20.07;;;13.40;51.70;;;;;;5025496;28;20194;-67
2022/03/24 09:38:40;;;;;;;45.80;20.50;;;13.30;51.50;;;;;;5031323;28;20201;-68
2022/03/24 09:41:07;;;;;;;35.73;19.53;;;13.20;51.50;;;;;;5014720;28;20279;-68
2022/03/24 09:43:36;;;;;;;42.87;21.97;;;13.30;51.20;;;;;;5032617;28;20507;-67
2022/03/24 09:46:02;;;;;;;42.73;20.47;;;13.30;51.40;;;;;;5032529;28;20229;-67
2022/03/24 09:48:28;;;;;;;48.80;20.07;;;13.40;50.90;;;;;;5032090;28;20690;-68
2022/03/24 09:50:54;;;;;;;44.00;20.03;;;13.30;50.70;;;;;;5033001;28;20262;-67
2022/03/24 09:53:20;;;;;;;50.50;20.67;;;13.30;50.90;;;;;;5032213;28;20266;-67
2022/03/24 09:55:48;;;;;;;37.33;21.20;;;13.40;50.70;;;;;;5032080;28;20285;-67
2022/03/24 09:58:13;;;;;;;39.30;20.87;;;13.40;50.50;;;;;;5032744;28;20212;-67
2022/03/24 10:00:40;;;;;;;50.63;19.90;;;13.40;50.70;;;;;;5032462;28;20277;-67
2022/03/24 10:03:21;;;;;;;48.67;21.03;;;13.40;50.50;;;;;;5032340;28;20616;-68
2022/03/24 10:05:58;;;;;;;46.43;20.63;;;13.50;51.30;;;;;;5013995;28;20296;-68
2022/03/24 10:08:26;;;;;;;36.73;19.90;;;13.70;50.20;;;;;;5031923;28;20210;-67
2022/03/24 10:10:57;;;;;;;48.83;20.33;;;13.70;50.00;;;;;;5031661;28;20210;-67
2022/03/24 10:13:25;;;;;;;39.50;19.07;;;13.80;49.90;;;;;;5032110;28;20203;-69
2022/03/24 10:15:52;;;;;;;36.83;19.20;;;13.80;49.70;;;;;;5013762;28;20615;-67
2022/03/24 10:18:17;;;;;;;39.53;19.47;;;13.90;49.50;;;;;;5031710;28;20198;-70
2022/03/24 10:20:43;;;;;;;36.50;18.30;;;14.00;48.90;;;;;;5030322;28;20191;-68
2022/03/24 10:23:11;;;;;;;35.17;17.57;;;14.00;48.20;;;;;;5031808;28;20196;-67
2022/03/24 10:25:42;;;;;;;36.20;18.03;;;14.00;47.90;;;;;;5012581;28;21273;-68
2022/03/24 10:28:12;;;;;;;38.87;19.47;;;13.90;47.90;;;;;;5030208;28;20352;-68
2022/03/24 10:30:57;;;;;;;37.77;19.93;;;13.90;48.00;;;;;;5029790;28;20206;-68
2022/03/24 10:33:28;;;;;;;37.67;19.43;;;13.90;48.40;;;;;;5030579;28;20551;-70
2022/03/24 10:36:26;;;;;;;44.50;18.23;;;14.00;48.40;;;;;;5022368;28;20676;-68
2022/03/24 10:38:54;;;;;;;33.60;16.77;;;14.10;48.10;;;;;;4992412;28;20200;-67
2022/03/24 10:41:29;;;;;;;37.87;17.10;;;14.00;46.70;;;;;;5012231;28;20184;-68
2022/03/24 10:43:58;;;;;;;39.63;18.33;;;13.90;46.70;;;;;;5011897;28;20266;-69
2022/03/24 10:46:28;;;;;;;37.33;17.73;;;14.00;47.50;;;;;;5012284;28;20200;-68
2022/03/24 10:48:55;;;;;;;37.33;17.83;;;14.00;47.50;;;;;;5011521;28;20270;-67
2022/03/24 10:51:31;;;;;;;41.27;19.13;;;14.30;47.50;;;;;;5011591;28;20191;-67
2022/03/24 10:54:48;;;;;;;37.87;17.77;;;14.40;47.30;;;;;;5011505;28;20179;-68
2022/03/24 10:57:16;;;;;;;36.43;17.07;;;14.20;47.10;;;;;;4998929;28;20224;-66
2022/03/24 10:59:46;;;;;;;47.80;21.27;;;14.20;47.40;;;;;;5010230;28;20659;-67
2022/03/24 11:02:13;;;;;;;38.33;17.43;;;14.20;47.60;;;;;;5010468;28;20175;-67
2022/03/24 11:04:39;;;;;;;41.90;19.73;;;14.30;47.10;;;;;;5010999;28;20226;-68
2022/03/24 11:07:05;;;;;;;44.93;17.37;;;14.20;46.60;;;;;;5011816;28;20211;-67
2022/03/24 11:09:33;;;;;;;48.37;18.43;;;14.20;46.80;;;;;;5010239;28;20219;-69
2022/03/24 11:12:26;;;;;;;44.40;17.83;;;14.20;47.10;;;;;;5011401;28;20529;-67
2022/03/24 11:14:55;;;;;;;32.67;16.87;;;14.00;46.90;;;;;;5010832;28;20167;-67
2022/03/24 11:17:25;;;;;;;32.33;17.47;;;13.80;46.60;;;;;;5011037;28;20211;-68
2022/03/24 11:20:13;;;;;;;53.70;22.70;;;13.90;47.10;;;;;;5011034;28;20286;-68
2022/03/24 11:22:50;;;;;;;68.10;26.20;;;14.20;47.30;;;;;;5010821;28;20216;-67
2022/03/24 11:25:17;;;;;;;41.37;20.73;;;14.60;47.20;;;;;;5011630;28;20188;-68
2022/03/24 11:27:44;;;;;;;46.90;19.87;;;15.00;46.30;;;;;;5010979;28;20179;-67
2022/03/24 11:30:11;;;;;;;45.73;20.13;;;15.40;46.00;;;;;;5010736;28;20235;-68
2022/03/24 11:32:39;;;;;;;46.37;20.97;;;15.40;45.30;;;;;;4993410;28;20188;-68
2022/03/24 11:35:06;;;;;;;48.00;21.37;;;15.50;45.40;;;;;;5014033;28;20207;-67
2022/03/24 11:37:33;;;;;;;43.63;19.10;;;15.20;44.80;;;;;;5030358;28;20308;-70
2022/03/24 11:40:11;;;;;;;50.03;19.93;;;15.20;44.80;;;;;;5030386;28;20204;-68
2022/03/24 11:42:46;;;;;;;44.93;21.10;;;15.10;44.90;;;;;;5030586;28;20160;-66
2022/03/24 11:45:28;;;;;;;55.63;23.00;;;15.30;45.20;;;;;;5030330;28;20182;-67
2022/03/24 11:48:15;;;;;;;45.30;21.13;;;15.30;44.80;;;;;;5029774;28;20192;-67
2022/03/24 11:50:44;;;;;;;49.90;18.67;;;15.50;43.60;;;;;;5029946;28;20703;-67
2022/03/24 11:53:25;;;;;;;44.10;18.27;;;16.30;42.50;;;;;;5030391;28;20185;-66
2022/03/24 11:56:03;;;;;;;48.23;21.63;;;16.80;40.00;;;;;;5029348;28;20305;-68
2022/03/24 11:58:52;;;;;;;38.57;17.40;;;17.10;39.60;;;;;;5029879;28;20202;-67
2022/03/24 12:01:21;;;;;;;53.97;20.80;;;17.80;38.60;;;;;;5030426;28;20175;-68
2022/03/24 12:04:14;;;;;;;44.07;17.20;;;18.20;37.70;;;;;;5031775;28;20183;-70
2022/03/24 12:06:43;;;;;;;39.73;16.77;;;18.30;36.50;;;;;;5025208;28;20194;-68
2022/03/24 12:09:13;;;;;;;36.90;13.97;;;17.70;37.00;;;;;;5048523;28;20347;-67
2022/03/24 12:11:51;;;;;;;45.80;19.60;;;17.70;36.90;;;;;;5016186;28;20194;-67
2022/03/24 12:14:19;;;;;;;40.73;18.33;;;17.50;36.40;;;;;;5029513;28;20185;-68
2022/03/24 12:16:51;;;;;;;30.70;15.87;;;17.30;37.10;;;;;;5025123;28;20175;-68
2022/03/24 12:19:49;;;;;;;28.67;13.47;;;18.00;36.60;;;;;;5024418;28;20176;-71
2022/03/24 12:22:31;;;;;;;31.77;14.63;;;19.00;34.70;;;;;;5024929;28;20264;-69
2022/03/24 12:24:59;;;;;;;28.90;14.20;;;19.40;33.70;;;;;;5024584;28;20167;-67
2022/03/24 12:27:30;;;;;;;39.67;17.60;;;19.70;32.50;;;;;;5024891;28;20206;-69
2022/03/24 12:30:17;;;;;;;37.60;13.07;;;20.40;32.20;;;;;;5023800;28;20281;-68
2022/03/24 12:33:00;;;;;;;34.78;15.63;;;20.90;30.00;;;;;;5024490;28;20262;-67
2022/03/24 12:35:41;;;;;;;35.10;14.00;;;20.90;29.80;;;;;;5024400;28;20553;-70
2022/03/24 12:38:32;;;;;;;37.00;12.47;;;20.70;29.10;;;;;;5024602;28;20210;-70
2022/03/24 12:41:04;;;;;;;28.23;11.27;;;19.80;29.10;;;;;;5013495;28;20229;-69
2022/03/24 12:43:45;;;;;;;32.13;12.33;;;19.50;29.00;;;;;;5023653;28;20194;-70